createdAt,value
2022-12-16T00:01:40.671Z,37.05
2022-12-16T00:04:07.451Z,31.75
2022-12-16T00:06:35.765Z,35.58
2022-12-16T00:09:02.500Z,29.33
2022-12-16T00:11:29.271Z,32.75
2022-12-16T00:13:57.534Z,29.05
2022-12-16T00:16:24.372Z,33.38
2022-12-16T00:18:51.750Z,35.72
2022-12-16T00:21:19.075Z,34.35
2022-12-16T00:23:46.524Z,29.13
2022-12-16T00:26:14.007Z,34.78
2022-12-16T00:28:41.007Z,29.50
2022-12-16T00:31:09.203Z,35.55
2022-12-16T00:33:36.341Z,27.40
2022-12-16T00:36:03.613Z,25.63
2022-12-16T00:38:30.441Z,34.33
2022-12-16T00:40:57.158Z,27.95
2022-12-16T00:43:23.890Z,30.55
2022-12-16T00:45:51.833Z,33.20
2022-12-16T00:48:20.342Z,28.73
2022-12-16T00:50:49.733Z,34.42
2022-12-16T00:53:18.867Z,29.75
2022-12-16T00:55:45.606Z,37.15
2022-12-16T00:58:12.714Z,34.25
2022-12-16T01:00:39.719Z,27.05
2022-12-16T01:03:06.856Z,35.95
2022-12-16T01:05:37.654Z,33.05
2022-12-16T01:08:04.631Z,35.45
2022-12-16T01:10:31.367Z,32.53
2022-12-16T01:12:58.361Z,31.77
2022-12-16T01:15:25.186Z,32.05
2022-12-16T01:17:51.939Z,27.10
2022-12-16T01:20:18.943Z,35.65
2022-12-16T01:22:47.062Z,31.38
2022-12-16T01:25:13.829Z,33.97
2022-12-16T01:27:40.666Z,34.72
2022-12-16T01:30:08.896Z,28.45
2022-12-16T01:32:35.650Z,32.55
2022-12-16T01:35:02.445Z,38.72
2022-12-16T01:37:29.262Z,34.75
2022-12-16T01:39:57.366Z,34.25
2022-12-16T01:42:24.456Z,39.80
2022-12-16T01:44:52.082Z,32.10
2022-12-16T01:47:26.157Z,37.25
2022-12-16T01:49:58.556Z,40.90
2022-12-16T01:52:29.966Z,31.30
2022-12-16T01:55:02.047Z,32.65
2022-12-16T01:57:32.501Z,35.50
2022-12-16T02:00:01.011Z,33.45
2022-12-16T02:02:27.888Z,36.17
2022-12-16T02:04:55.283Z,29.90
2022-12-16T02:07:22.161Z,33.20
2022-12-16T02:09:49.063Z,31.33
2022-12-16T02:12:26.512Z,42.42
2022-12-16T02:15:05.862Z,32.28
2022-12-16T02:17:40.653Z,29.95
2022-12-16T02:20:49.510Z,34.50
2022-12-16T02:23:54.236Z,37.22
2022-12-16T02:26:40.519Z,35.85
2022-12-16T02:29:37.193Z,33.10
2022-12-16T02:32:15.167Z,35.22
2022-12-16T02:34:49.947Z,34.75
2022-12-16T02:37:26.591Z,35.55
2022-12-16T02:39:58.823Z,37.50
2022-12-16T02:42:30.647Z,34.22
2022-12-16T02:45:01.504Z,36.80
2022-12-16T02:47:30.880Z,44.25
2022-12-16T02:49:57.992Z,31.92
2022-12-16T02:52:28.297Z,35.40
2022-12-16T02:54:59.108Z,35.55
2022-12-16T02:57:47.299Z,35.47
2022-12-16T03:00:17.058Z,36.92
2022-12-16T03:02:53.140Z,30.52
2022-12-16T03:05:23.784Z,31.95
2022-12-16T03:07:53.353Z,42.65
2022-12-16T03:10:24.734Z,33.25
2022-12-16T03:12:52.111Z,33.30
2022-12-16T03:15:23.130Z,36.88
2022-12-16T03:17:54.719Z,39.60
2022-12-16T03:20:26.887Z,43.65
2022-12-16T03:22:56.737Z,30.77
2022-12-16T03:25:24.240Z,41.45
2022-12-16T03:27:58.865Z,42.05
2022-12-16T03:30:28.361Z,45.55
2022-12-16T03:33:02.759Z,44.35
2022-12-16T03:35:35.752Z,35.80
2022-12-16T03:38:05.595Z,39.42
2022-12-16T03:40:33.723Z,44.35
2022-12-16T03:43:02.221Z,40.15
2022-12-16T03:45:32.146Z,42.45
2022-12-16T03:48:00.279Z,37.30
2022-12-16T03:50:31.551Z,42.15
2022-12-16T03:52:58.255Z,35.08
2022-12-16T03:55:24.991Z,45.97
2022-12-16T03:57:51.781Z,33.58
2022-12-16T04:00:18.794Z,35.83
2022-12-16T04:02:45.757Z,31.05
2022-12-16T04:05:14.315Z,36.88
2022-12-16T04:07:41.169Z,34.42
2022-12-16T04:10:09.347Z,43.72
2022-12-16T04:12:36.239Z,40.35
2022-12-16T04:15:03.681Z,33.53
2022-12-16T04:17:30.437Z,41.08
2022-12-16T04:19:57.162Z,43.25
2022-12-16T04:22:29.239Z,37.80
2022-12-16T04:24:56.645Z,49.25
2022-12-16T04:27:23.340Z,33.03
2022-12-16T04:29:50.079Z,36.53
2022-12-16T04:32:16.795Z,32.92
2022-12-16T04:34:43.489Z,41.65
2022-12-16T04:37:10.266Z,32.22
2022-12-16T04:39:38.315Z,33.83
2022-12-16T04:42:05.128Z,37.70
2022-12-16T04:44:31.889Z,44.67
2022-12-16T04:46:58.795Z,38.08
2022-12-16T04:49:25.547Z,34.95
2022-12-16T04:51:52.374Z,37.97
2022-12-16T04:54:19.120Z,40.80
2022-12-16T04:56:47.232Z,39.90
2022-12-16T04:59:14.129Z,45.88
2022-12-16T05:01:40.976Z,40.22
2022-12-16T05:04:07.939Z,36.63
2022-12-16T05:06:34.696Z,38.55
2022-12-16T05:09:01.507Z,36.20
2022-12-16T05:11:28.225Z,39.17
2022-12-16T05:13:56.391Z,40.03
2022-12-16T05:16:23.162Z,36.08
2022-12-16T05:18:49.920Z,32.63
2022-12-16T05:21:16.680Z,39.45
2022-12-16T05:23:43.459Z,38.10
2022-12-16T05:26:10.228Z,31.38
2022-12-16T05:28:36.957Z,32.58
2022-12-16T05:31:05.347Z,37.03
2022-12-16T05:33:32.552Z,38.72
2022-12-16T05:35:59.536Z,36.40
2022-12-16T05:38:26.331Z,34.90
2022-12-16T05:40:53.055Z,37.50
2022-12-16T05:43:19.766Z,35.30
2022-12-16T05:45:46.572Z,37.53
2022-12-16T05:48:14.651Z,40.63
2022-12-16T05:50:41.366Z,38.92
2022-12-16T05:53:08.448Z,37.70
2022-12-16T05:55:35.270Z,39.42
2022-12-16T05:58:02.007Z,38.80
2022-12-16T06:00:28.776Z,41.15
2022-12-16T06:02:55.544Z,39.00
2022-12-16T06:05:23.681Z,43.55
2022-12-16T06:07:51.603Z,41.05
2022-12-16T06:10:18.342Z,77.28
2022-12-16T06:12:46.761Z,60.88
2022-12-16T06:15:13.612Z,37.45
2022-12-16T06:17:42.322Z,49.67
2022-12-16T06:20:09.716Z,135.30
2022-12-16T06:22:37.897Z,80.00
2022-12-16T06:25:05.233Z,81.45
2022-12-16T06:27:31.938Z,71.40
2022-12-16T06:29:58.667Z,142.50
2022-12-16T06:32:25.374Z,76.72
2022-12-16T06:34:52.074Z,39.20
2022-12-16T06:37:19.021Z,53.70
2022-12-16T06:39:52.566Z,71.05
2022-12-16T06:42:20.098Z,82.47
2022-12-16T06:44:46.897Z,36.03
2022-12-16T06:47:13.624Z,60.60
2022-12-16T06:49:40.466Z,53.13
2022-12-16T06:52:07.163Z,67.57
2022-12-16T06:54:33.904Z,65.63
2022-12-16T06:57:01.973Z,43.47
2022-12-16T06:59:28.690Z,41.55
2022-12-16T07:01:55.550Z,50.83
2022-12-16T07:04:22.516Z,43.17
2022-12-16T07:06:49.241Z,41.45
2022-12-16T07:09:15.952Z,48.40
2022-12-16T07:11:42.757Z,42.35
2022-12-16T07:14:10.838Z,49.13
2022-12-16T07:16:37.590Z,50.20
2022-12-16T07:19:04.384Z,44.38
2022-12-16T07:21:31.107Z,45.03
2022-12-16T07:23:57.968Z,77.30
2022-12-16T07:26:24.742Z,42.78
2022-12-16T07:28:51.439Z,38.78
2022-12-16T07:31:19.560Z,36.28
2022-12-16T07:33:46.342Z,90.30
2022-12-16T07:36:13.027Z,47.58
2022-12-16T07:38:39.733Z,41.70
2022-12-16T07:41:06.710Z,51.90
2022-12-16T07:43:33.796Z,118.20
2022-12-16T07:46:00.938Z,40.55
2022-12-16T07:48:29.060Z,38.38
2022-12-16T07:50:55.762Z,34.05
2022-12-16T07:53:25.620Z,38.53
2022-12-16T07:55:56.418Z,39.63
2022-12-16T07:58:23.224Z,34.78
2022-12-16T08:00:49.984Z,40.83
2022-12-16T08:03:17.796Z,36.38
2022-12-16T08:05:45.879Z,37.45
2022-12-16T08:08:12.643Z,42.58
2022-12-16T08:10:39.413Z,40.30
2022-12-16T08:13:06.297Z,43.88
2022-12-16T08:15:33.040Z,32.88
2022-12-16T08:17:59.821Z,39.30
2022-12-16T08:20:26.598Z,36.72
2022-12-16T08:22:54.756Z,31.33
2022-12-16T08:25:25.377Z,39.95
2022-12-16T08:27:54.347Z,31.60
2022-12-16T08:30:22.764Z,41.22
2022-12-16T08:32:51.328Z,39.60
2022-12-16T08:35:21.202Z,43.10
2022-12-16T08:37:48.148Z,42.72
2022-12-16T08:40:34.952Z,34.70
2022-12-16T08:43:05.487Z,36.28
2022-12-16T08:45:37.640Z,37.15
2022-12-16T08:48:04.787Z,35.90
2022-12-16T08:50:31.507Z,41.35
2022-12-16T08:52:58.225Z,45.35
2022-12-16T08:55:29.638Z,36.42
2022-12-16T08:57:56.738Z,36.15
2022-12-16T09:00:23.495Z,32.20
2022-12-16T09:02:55.342Z,27.60
2022-12-16T09:05:22.470Z,36.72
2022-12-16T09:07:49.186Z,35.78
2022-12-16T09:10:16.071Z,38.13
2022-12-16T09:12:44.455Z,43.80
2022-12-16T09:15:11.215Z,39.58
2022-12-16T09:17:38.032Z,34.53
2022-12-16T09:20:05.864Z,37.53
2022-12-16T09:22:32.581Z,35.00
2022-12-16T09:24:59.377Z,37.10
2022-12-16T09:27:26.277Z,49.20
2022-12-16T09:29:54.333Z,43.72
2022-12-16T09:32:22.619Z,33.17
2022-12-16T09:34:49.422Z,29.77
2022-12-16T09:37:16.120Z,37.75
2022-12-16T09:39:42.811Z,39.22
2022-12-16T09:42:16.955Z,32.47
2022-12-16T09:44:55.287Z,39.63
2022-12-16T09:47:32.729Z,40.03
2022-12-16T09:49:59.877Z,27.85
2022-12-16T09:52:27.785Z,38.00
2022-12-16T09:54:54.599Z,38.95
2022-12-16T09:57:22.522Z,57.05
2022-12-16T09:59:55.788Z,34.22
2022-12-16T10:02:25.811Z,30.45
2022-12-16T10:04:52.733Z,51.78
2022-12-16T10:07:21.529Z,33.75
2022-12-16T10:09:58.640Z,36.15
2022-12-16T10:12:35.108Z,47.05
2022-12-16T10:15:14.936Z,31.05
2022-12-16T10:17:46.116Z,32.30
2022-12-16T10:20:24.838Z,43.78
2022-12-16T10:23:01.511Z,40.35
2022-12-16T10:25:35.032Z,42.33
2022-12-16T10:28:13.674Z,50.45
2022-12-16T10:30:40.598Z,35.70
2022-12-16T10:33:13.718Z,41.00
2022-12-16T10:35:45.718Z,34.63
2022-12-16T10:38:20.264Z,38.05
2022-12-16T10:40:47.307Z,43.38
2022-12-16T10:43:20.987Z,32.15
2022-12-16T10:45:52.361Z,35.75
2022-12-16T10:48:25.656Z,30.45
2022-12-16T10:50:52.367Z,36.60
2022-12-16T10:53:25.818Z,41.25
2022-12-16T10:56:04.489Z,39.78
2022-12-16T10:58:42.899Z,34.85
2022-12-16T11:01:23.311Z,48.50
2022-12-16T11:03:51.577Z,27.65
2022-12-16T11:06:24.857Z,34.88
2022-12-16T11:08:51.784Z,33.03
2022-12-16T11:11:22.518Z,40.60
2022-12-16T11:13:49.749Z,33.33
2022-12-16T11:16:19.515Z,30.23
2022-12-16T11:18:51.078Z,25.13
2022-12-16T11:21:19.875Z,29.17
2022-12-16T11:23:46.605Z,38.88
2022-12-16T11:26:14.781Z,40.40
2022-12-16T11:28:41.569Z,23.58
2022-12-16T11:31:14.193Z,27.17
2022-12-16T11:33:42.229Z,35.33
2022-12-16T11:36:17.145Z,36.42
2022-12-16T11:38:46.311Z,39.88
2022-12-16T11:41:27.168Z,28.63
2022-12-16T11:43:55.207Z,34.90
2022-12-16T11:46:26.688Z,33.58
2022-12-16T11:48:58.655Z,35.80
2022-12-16T11:51:30.293Z,33.75
2022-12-16T11:54:05.639Z,33.00
2022-12-16T11:56:35.101Z,27.60
2022-12-16T11:59:11.811Z,27.08
2022-12-16T12:01:46.025Z,29.63
2022-12-16T12:04:13.923Z,27.48
2022-12-16T12:07:00.988Z,34.35
2022-12-16T12:09:28.438Z,33.42
2022-12-16T12:12:03.197Z,32.15
2022-12-16T12:14:39.210Z,25.77
2022-12-16T12:17:18.137Z,29.92
2022-12-16T12:19:56.034Z,30.27
2022-12-16T12:22:31.920Z,33.40
2022-12-16T12:25:05.089Z,31.10
2022-12-16T12:27:38.686Z,33.47
2022-12-16T12:30:16.025Z,31.15
2022-12-16T12:32:51.017Z,37.60
2022-12-16T12:35:31.257Z,32.00
2022-12-16T12:38:05.957Z,30.90
2022-12-16T12:40:44.332Z,26.95
2022-12-16T12:43:21.647Z,29.83
2022-12-16T12:45:57.591Z,30.95
2022-12-16T12:48:29.128Z,31.23
2022-12-16T12:51:05.229Z,28.30
2022-12-16T12:53:45.302Z,29.77
2022-12-16T12:56:25.137Z,26.33
2022-12-16T12:58:56.386Z,34.60
2022-12-16T13:01:27.065Z,25.30
2022-12-16T13:03:59.729Z,26.35
2022-12-16T13:06:27.544Z,30.95
2022-12-16T13:08:57.701Z,30.13
2022-12-16T13:11:27.716Z,24.67
2022-12-16T13:13:58.093Z,28.95
2022-12-16T13:17:06.696Z,30.77
2022-12-16T13:19:43.720Z,26.08
2022-12-16T13:22:28.736Z,22.20
2022-12-16T13:24:57.101Z,26.80
2022-12-16T13:27:25.034Z,29.80
2022-12-16T13:30:01.826Z,27.65
2022-12-16T13:32:28.609Z,26.00
2022-12-16T13:35:00.349Z,22.38
2022-12-16T13:37:32.535Z,29.77
2022-12-16T13:40:06.446Z,23.02
2022-12-16T13:42:48.040Z,22.13
2022-12-16T13:45:30.618Z,26.33
2022-12-16T13:48:03.965Z,19.15
2022-12-16T13:50:38.556Z,22.50
2022-12-16T13:53:09.562Z,23.33
2022-12-16T13:55:42.468Z,33.75
2022-12-16T13:58:24.744Z,24.05
2022-12-16T14:00:59.032Z,25.63
2022-12-16T14:03:39.576Z,32.85
2022-12-16T14:06:13.273Z,35.75
2022-12-16T14:08:40.992Z,22.63
2022-12-16T14:11:18.888Z,28.92
2022-12-16T14:13:54.186Z,21.23
2022-12-16T14:16:32.833Z,25.83
2022-12-16T14:19:13.000Z,22.55
2022-12-16T14:21:45.477Z,24.15
2022-12-16T14:24:21.743Z,23.38
2022-12-16T14:26:50.629Z,22.13
2022-12-16T14:29:21.899Z,25.85
2022-12-16T14:31:52.874Z,23.00
2022-12-16T14:34:22.983Z,23.40
2022-12-16T14:36:49.923Z,25.52
2022-12-16T14:39:21.994Z,27.00
2022-12-16T14:41:52.121Z,23.83
2022-12-16T14:44:21.398Z,25.05
2022-12-16T14:46:51.813Z,19.92
2022-12-16T14:49:22.287Z,20.20
2022-12-16T14:51:49.192Z,16.48
2022-12-16T14:54:22.510Z,22.88
2022-12-16T14:56:50.781Z,28.38
2022-12-16T14:59:19.727Z,22.85
2022-12-16T15:01:47.193Z,24.02
2022-12-16T15:04:17.050Z,22.08
2022-12-16T15:06:47.452Z,24.33
2022-12-16T15:09:21.174Z,18.20
2022-12-16T15:11:49.733Z,23.77
2022-12-16T15:14:24.491Z,22.95
2022-12-16T15:16:52.299Z,27.30
2022-12-16T15:19:21.819Z,18.58
2022-12-16T15:21:48.808Z,20.17
2022-12-16T15:24:18.483Z,21.48
2022-12-16T15:26:45.266Z,29.85
2022-12-16T15:29:32.531Z,18.88
2022-12-16T15:32:03.213Z,18.88
2022-12-16T15:34:33.081Z,18.98
2022-12-16T15:36:59.811Z,16.67
2022-12-16T15:39:34.845Z,18.63
2022-12-16T15:42:01.701Z,16.63
2022-12-16T15:44:29.964Z,23.25
2022-12-16T15:46:56.780Z,19.80
2022-12-16T15:49:31.551Z,21.05
2022-12-16T15:51:58.344Z,87.93
2022-12-16T15:54:25.152Z,21.98
2022-12-16T15:56:51.895Z,20.77
2022-12-16T15:59:27.498Z,16.95
2022-12-16T16:01:59.732Z,26.55
2022-12-16T16:04:31.122Z,22.35
2022-12-16T16:06:57.900Z,16.20
2022-12-16T16:09:26.561Z,20.25
2022-12-16T16:11:53.277Z,16.25
2022-12-16T16:14:20.002Z,14.57
2022-12-16T16:16:46.785Z,19.75
2022-12-16T16:19:21.195Z,18.95
2022-12-16T16:21:47.944Z,17.02
2022-12-16T16:24:14.841Z,23.45
2022-12-16T16:26:41.603Z,40.78
2022-12-16T16:29:10.453Z,22.02
2022-12-16T16:31:37.288Z,21.10
2022-12-16T16:34:04.376Z,19.15
2022-12-16T16:36:32.488Z,17.45
2022-12-16T16:38:59.225Z,17.67
2022-12-16T16:41:25.995Z,69.40
2022-12-16T16:43:52.709Z,24.60
2022-12-16T16:46:31.681Z,21.40
2022-12-16T16:48:59.195Z,19.15
2022-12-16T16:51:26.117Z,21.25
2022-12-16T16:53:54.200Z,25.83
2022-12-16T16:56:20.987Z,27.73
2022-12-16T16:58:48.815Z,19.50
2022-12-16T17:01:18.509Z,23.75
2022-12-16T17:03:45.534Z,27.20
2022-12-16T17:06:12.413Z,30.75
2022-12-16T17:08:39.193Z,23.55
2022-12-16T17:11:16.462Z,62.70
2022-12-16T17:13:43.281Z,14.50
2022-12-16T17:16:11.089Z,25.73
2022-12-16T17:18:43.744Z,23.23
2022-12-16T17:21:11.796Z,23.83
2022-12-16T17:23:39.116Z,18.00
2022-12-16T17:26:09.900Z,19.85
2022-12-16T17:28:36.611Z,18.73
2022-12-16T17:31:03.484Z,19.08
2022-12-16T17:33:30.351Z,21.75
2022-12-16T17:35:57.289Z,24.25
2022-12-16T17:38:23.988Z,20.80
2022-12-16T17:40:51.956Z,21.60
2022-12-16T17:43:20.100Z,19.30
2022-12-16T17:45:56.264Z,19.98
2022-12-16T17:48:23.037Z,20.75
2022-12-16T17:50:49.752Z,20.13
2022-12-16T17:53:16.464Z,19.73
2022-12-16T17:55:43.520Z,32.22
2022-12-16T17:58:10.223Z,17.60
2022-12-16T18:00:38.343Z,20.75
2022-12-16T18:03:05.433Z,20.85
2022-12-16T18:05:38.790Z,16.02
2022-12-16T18:08:08.084Z,30.30
2022-12-16T18:10:34.815Z,19.67
2022-12-16T18:13:01.715Z,27.10
2022-12-16T18:15:28.505Z,21.13
2022-12-16T18:17:56.580Z,24.65
2022-12-16T18:20:23.459Z,22.02
2022-12-16T18:22:52.743Z,18.52
2022-12-16T18:25:19.523Z,22.20
2022-12-16T18:27:46.272Z,21.52
2022-12-16T18:30:14.012Z,20.65
2022-12-16T18:32:40.742Z,18.15
2022-12-16T18:35:09.036Z,14.85
2022-12-16T18:37:35.768Z,18.15
2022-12-16T18:40:02.541Z,22.98
2022-12-16T18:42:29.369Z,21.52
2022-12-16T18:45:00.838Z,17.48
2022-12-16T18:47:28.174Z,19.05
2022-12-16T18:49:54.916Z,21.98
2022-12-16T18:52:23.213Z,24.10
2022-12-16T18:54:49.945Z,19.30
2022-12-16T18:57:16.682Z,29.63
2022-12-16T18:59:43.525Z,16.20
2022-12-16T19:02:10.543Z,23.15
2022-12-16T19:04:37.370Z,19.60
2022-12-16T19:07:04.113Z,21.48
2022-12-16T19:09:32.247Z,17.08
2022-12-16T19:11:59.035Z,20.33
2022-12-16T19:14:25.785Z,16.50
2022-12-16T19:16:52.546Z,20.63
2022-12-16T19:19:20.417Z,23.50
2022-12-16T19:21:56.167Z,20.27
2022-12-16T19:24:23.882Z,19.70
2022-12-16T19:26:52.046Z,16.95
2022-12-16T19:29:18.881Z,19.85
2022-12-16T19:31:46.016Z,17.15
2022-12-16T19:34:19.349Z,16.05
2022-12-16T19:36:48.615Z,22.63
2022-12-16T19:39:17.228Z,24.90
2022-12-16T19:41:47.114Z,22.58
2022-12-16T19:44:20.663Z,16.15
2022-12-16T19:46:50.263Z,21.13
2022-12-16T19:49:17.691Z,25.05
2022-12-16T19:51:44.994Z,20.00
2022-12-16T19:54:12.858Z,19.38
2022-12-16T19:56:41.311Z,23.38
2022-12-16T19:59:09.176Z,17.33
2022-12-16T20:01:47.840Z,23.05
2022-12-16T20:04:17.393Z,19.80
2022-12-16T20:06:48.465Z,24.75
2022-12-16T20:09:15.862Z,17.65
2022-12-16T20:11:45.586Z,24.02
2022-12-16T20:14:14.493Z,25.83
2022-12-16T20:16:45.939Z,21.88
2022-12-16T20:19:13.607Z,16.05
2022-12-16T20:21:42.229Z,21.17
2022-12-16T20:24:12.158Z,19.10
2022-12-16T20:26:39.495Z,25.52
2022-12-16T20:29:07.791Z,22.88
2022-12-16T20:31:35.970Z,19.02
2022-12-16T20:34:04.292Z,17.90
2022-12-16T20:36:31.437Z,25.02
2022-12-16T20:38:58.164Z,18.13
2022-12-16T20:41:25.401Z,21.10
2022-12-16T20:43:52.902Z,24.73
2022-12-16T20:46:23.113Z,21.98
2022-12-16T20:48:49.941Z,24.40
2022-12-16T20:54:05.025Z,24.50
2022-12-16T20:56:31.762Z,20.83
2022-12-16T20:58:58.640Z,21.48
2022-12-16T21:01:25.554Z,18.55
2022-12-16T21:03:52.500Z,17.42
2022-12-16T21:06:20.604Z,18.92
2022-12-16T21:08:47.377Z,19.58
2022-12-16T21:11:14.224Z,23.23
2022-12-16T21:13:40.943Z,27.00
2022-12-16T21:16:07.775Z,22.98
2022-12-16T21:18:34.690Z,20.75
2022-12-16T21:21:01.473Z,27.38
2022-12-16T21:23:29.560Z,19.48
2022-12-16T21:25:58.725Z,22.83
2022-12-16T21:28:25.451Z,22.58
2022-12-16T21:30:52.176Z,25.67
2022-12-16T21:33:21.088Z,23.83
2022-12-16T21:35:51.808Z,19.98
2022-12-16T21:38:18.594Z,17.40
2022-12-16T21:40:55.992Z,19.30
2022-12-16T21:43:23.114Z,20.75
2022-12-16T21:45:52.341Z,27.15
2022-12-16T21:48:22.920Z,21.48
2022-12-16T21:50:53.217Z,19.17
2022-12-16T21:53:20.395Z,20.25
2022-12-16T21:55:52.837Z,19.52
2022-12-16T21:58:20.598Z,16.87
2022-12-16T22:01:00.253Z,20.70
2022-12-16T22:03:32.910Z,20.02
2022-12-16T22:06:00.147Z,20.92
2022-12-16T22:08:26.870Z,22.17
2022-12-16T22:13:42.646Z,22.08
2022-12-16T22:16:09.811Z,17.83
2022-12-16T22:18:36.572Z,22.67
2022-12-16T22:21:05.167Z,27.55
2022-12-16T22:23:31.895Z,21.48
2022-12-16T22:26:00.920Z,22.23
2022-12-16T22:28:27.638Z,17.23
2022-12-16T22:30:56.337Z,21.75
2022-12-16T22:33:23.252Z,17.38
2022-12-16T22:35:50.058Z,16.17
2022-12-16T22:38:16.899Z,20.75
2022-12-16T22:40:43.634Z,23.88
2022-12-16T22:43:11.744Z,22.60
2022-12-16T22:45:38.446Z,19.65
2022-12-16T22:48:05.677Z,25.48
2022-12-16T22:50:32.477Z,21.13
2022-12-16T22:52:59.204Z,17.17
2022-12-16T22:55:25.922Z,23.17
2022-12-16T22:57:53.403Z,16.95
2022-12-16T23:00:21.845Z,21.67
2022-12-16T23:02:48.609Z,22.42
2022-12-16T23:05:15.512Z,18.83
2022-12-16T23:07:42.246Z,16.90
2022-12-16T23:10:09.187Z,21.83
2022-12-16T23:12:35.955Z,19.77
2022-12-16T23:15:02.989Z,17.73
2022-12-16T23:17:31.208Z,20.90
2022-12-16T23:19:58.178Z,24.02
2022-12-16T23:22:24.880Z,16.80
2022-12-16T23:24:51.628Z,23.40
2022-12-16T23:27:18.955Z,20.02
2022-12-16T23:29:45.674Z,27.42
2022-12-16T23:32:12.425Z,23.20
2022-12-16T23:34:45.453Z,20.45
2022-12-16T23:37:12.980Z,21.05
2022-12-16T23:39:39.719Z,23.50
2022-12-16T23:42:06.529Z,20.42
2022-12-16T23:44:33.246Z,20.92
2022-12-16T23:47:00.054Z,22.30
2022-12-16T23:49:26.901Z,22.60
2022-12-16T23:51:54.944Z,18.33
2022-12-16T23:54:23.245Z,22.02
2022-12-16T23:56:49.963Z,23.00
2022-12-16T23:59:16.662Z,22.38
